sensor_id;sensor_type;location;lat;lon;timestamp;temperature;humidity
59505;DHT22;45321;53.200;5.814;2024-03-22T00:01:15;10.50;89.00
59505;DHT22;45321;53.200;5.814;2024-03-22T00:03:41;10.50;88.90
59505;DHT22;45321;53.200;5.814;2024-03-22T00:06:07;10.50;89.00
59505;DHT22;45321;53.200;5.814;2024-03-22T00:08:32;10.50;89.10
59505;DHT22;45321;53.200;5.814;2024-03-22T00:10:58;10.50;89.10
59505;DHT22;45321;53.200;5.814;2024-03-22T00:13:24;10.60;89.20
59505;DHT22;45321;53.200;5.814;2024-03-22T00:15:49;10.60;89.30
59505;DHT22;45321;53.200;5.814;2024-03-22T00:18:16;10.60;89.30
59505;DHT22;45321;53.200;5.814;2024-03-22T00:20:41;10.60;89.40
59505;DHT22;45321;53.200;5.814;2024-03-22T00:23:07;10.60;89.50
59505;DHT22;45321;53.200;5.814;2024-03-22T00:25:33;10.60;89.60
59505;DHT22;45321;53.200;5.814;2024-03-22T00:27:58;10.60;89.70
59505;DHT22;45321;53.200;5.814;2024-03-22T00:30:24;10.60;89.70
59505;DHT22;45321;53.200;5.814;2024-03-22T00:32:50;10.70;89.80
59505;DHT22;45321;53.200;5.814;2024-03-22T00:35:15;10.70;90.00
59505;DHT22;45321;53.200;5.814;2024-03-22T00:37:41;10.70;90.00
59505;DHT22;45321;53.200;5.814;2024-03-22T00:40:10;10.60;90.10
59505;DHT22;45321;53.200;5.814;2024-03-22T00:42:36;10.70;90.10
59505;DHT22;45321;53.200;5.814;2024-03-22T00:45:02;10.70;90.10
59505;DHT22;45321;53.200;5.814;2024-03-22T00:47:27;10.70;90.10
59505;DHT22;45321;53.200;5.814;2024-03-22T00:49:53;10.70;90.20
59505;DHT22;45321;53.200;5.814;2024-03-22T00:52:19;10.70;90.30
59505;DHT22;45321;53.200;5.814;2024-03-22T00:54:44;10.70;90.30
59505;DHT22;45321;53.200;5.814;2024-03-22T00:57:10;10.70;90.30
59505;DHT22;45321;53.200;5.814;2024-03-22T00:59:36;10.80;90.50
59505;DHT22;45321;53.200;5.814;2024-03-22T01:02:01;10.80;90.40
59505;DHT22;45321;53.200;5.814;2024-03-22T01:04:27;10.80;90.50
59505;DHT22;45321;53.200;5.814;2024-03-22T01:06:53;10.80;90.40
59505;DHT22;45321;53.200;5.814;2024-03-22T01:09:18;10.80;90.50
59505;DHT22;45321;53.200;5.814;2024-03-22T01:11:45;10.80;90.60
59505;DHT22;45321;53.200;5.814;2024-03-22T01:14:10;10.80;90.60
59505;DHT22;45321;53.200;5.814;2024-03-22T01:16:36;10.80;90.60
59505;DHT22;45321;53.200;5.814;2024-03-22T01:19:02;10.80;90.60
59505;DHT22;45321;53.200;5.814;2024-03-22T01:21:27;10.80;90.60
59505;DHT22;45321;53.200;5.814;2024-03-22T01:23:53;10.80;90.60
59505;DHT22;45321;53.200;5.814;2024-03-22T01:26:19;10.80;90.60
59505;DHT22;45321;53.200;5.814;2024-03-22T01:28:46;10.80;90.60
59505;DHT22;45321;53.200;5.814;2024-03-22T01:31:11;10.90;90.60
59505;DHT22;45321;53.200;5.814;2024-03-22T01:33:37;10.80;90.60
59505;DHT22;45321;53.200;5.814;2024-03-22T01:36:03;10.80;90.70
59505;DHT22;45321;53.200;5.814;2024-03-22T01:38:31;10.80;90.70
59505;DHT22;45321;53.200;5.814;2024-03-22T01:40:56;10.80;90.70
59505;DHT22;45321;53.200;5.814;2024-03-22T01:43:22;10.80;90.70
59505;DHT22;45321;53.200;5.814;2024-03-22T01:45:48;10.80;90.70
59505;DHT22;45321;53.200;5.814;2024-03-22T01:48:14;10.80;90.70
59505;DHT22;45321;53.200;5.814;2024-03-22T01:50:40;10.80;90.70
59505;DHT22;45321;53.200;5.814;2024-03-22T01:53:06;10.80;90.80
59505;DHT22;45321;53.200;5.814;2024-03-22T01:55:32;10.80;90.70
59505;DHT22;45321;53.200;5.814;2024-03-22T01:57:58;10.80;90.70
59505;DHT22;45321;53.200;5.814;2024-03-22T02:00:24;10.80;90.70
59505;DHT22;45321;53.200;5.814;2024-03-22T02:02:50;10.80;90.70
59505;DHT22;45321;53.200;5.814;2024-03-22T02:05:17;10.80;90.70
59505;DHT22;45321;53.200;5.814;2024-03-22T02:07:45;10.80;90.70
59505;DHT22;45321;53.200;5.814;2024-03-22T02:10:11;10.80;90.70
59505;DHT22;45321;53.200;5.814;2024-03-22T02:12:41;10.80;90.60
59505;DHT22;45321;53.200;5.814;2024-03-22T02:15:08;10.80;90.60
59505;DHT22;45321;53.200;5.814;2024-03-22T02:17:34;10.80;90.60
59505;DHT22;45321;53.200;5.814;2024-03-22T02:20:00;10.80;90.50
59505;DHT22;45321;53.200;5.814;2024-03-22T02:22:26;10.80;90.50
59505;DHT22;45321;53.200;5.814;2024-03-22T02:24:53;10.80;90.50
59505;DHT22;45321;53.200;5.814;2024-03-22T02:27:18;10.80;90.50
59505;DHT22;45321;53.200;5.814;2024-03-22T02:29:44;10.80;90.60
59505;DHT22;45321;53.200;5.814;2024-03-22T02:32:10;10.80;90.50
59505;DHT22;45321;53.200;5.814;2024-03-22T02:34:36;10.80;90.60
59505;DHT22;45321;53.200;5.814;2024-03-22T02:37:01;10.80;90.60
59505;DHT22;45321;53.200;5.814;2024-03-22T02:39:30;10.80;90.60
59505;DHT22;45321;53.200;5.814;2024-03-22T02:41:56;10.80;90.60
59505;DHT22;45321;53.200;5.814;2024-03-22T02:44:22;10.80;90.60
59505;DHT22;45321;53.200;5.814;2024-03-22T02:46:47;10.80;90.60
59505;DHT22;45321;53.200;5.814;2024-03-22T02:49:13;10.70;90.60
59505;DHT22;45321;53.200;5.814;2024-03-22T02:51:39;10.70;90.60
59505;DHT22;45321;53.200;5.814;2024-03-22T02:54:05;10.80;90.70
59505;DHT22;45321;53.200;5.814;2024-03-22T02:56:30;10.70;90.70
59505;DHT22;45321;53.200;5.814;2024-03-22T02:58:56;10.70;90.70
59505;DHT22;45321;53.200;5.814;2024-03-22T03:01:22;10.70;90.70
59505;DHT22;45321;53.200;5.814;2024-03-22T03:03:47;10.70;90.70
59505;DHT22;45321;53.200;5.814;2024-03-22T03:06:13;10.70;90.70
59505;DHT22;45321;53.200;5.814;2024-03-22T03:08:40;10.70;90.70
59505;DHT22;45321;53.200;5.814;2024-03-22T03:11:06;10.70;90.70
59505;DHT22;45321;53.200;5.814;2024-03-22T03:13:32;10.80;90.60
59505;DHT22;45321;53.200;5.814;2024-03-22T03:15:57;10.70;90.60
59505;DHT22;45321;53.200;5.814;2024-03-22T03:18:23;10.70;90.60
59505;DHT22;45321;53.200;5.814;2024-03-22T03:20:49;10.80;90.70
59505;DHT22;45321;53.200;5.814;2024-03-22T03:23:15;10.70;90.70
59505;DHT22;45321;53.200;5.814;2024-03-22T03:25:41;10.80;90.60
59505;DHT22;45321;53.200;5.814;2024-03-22T03:28:06;10.70;90.60
59505;DHT22;45321;53.200;5.814;2024-03-22T03:30:36;10.70;90.60
59505;DHT22;45321;53.200;5.814;2024-03-22T03:33:02;10.80;90.60
59505;DHT22;45321;53.200;5.814;2024-03-22T03:35:28;10.80;90.60
59505;DHT22;45321;53.200;5.814;2024-03-22T03:37:55;10.80;90.60
59505;DHT22;45321;53.200;5.814;2024-03-22T03:40:20;10.80;90.60
59505;DHT22;45321;53.200;5.814;2024-03-22T03:42:47;10.70;90.60
59505;DHT22;45321;53.200;5.814;2024-03-22T03:45:13;10.70;90.60
59505;DHT22;45321;53.200;5.814;2024-03-22T03:47:38;10.70;90.70
59505;DHT22;45321;53.200;5.814;2024-03-22T03:50:04;10.70;90.60
59505;DHT22;45321;53.200;5.814;2024-03-22T03:52:30;10.80;90.60
59505;DHT22;45321;53.200;5.814;2024-03-22T03:54:56;10.70;90.60
59505;DHT22;45321;53.200;5.814;2024-03-22T03:57:22;10.80;90.60
59505;DHT22;45321;53.200;5.814;2024-03-22T03:59:51;10.70;90.60
59505;DHT22;45321;53.200;5.814;2024-03-22T04:02:16;10.80;90.60
59505;DHT22;45321;53.200;5.814;2024-03-22T04:04:45;10.70;90.60
59505;DHT22;45321;53.200;5.814;2024-03-22T04:07:11;10.80;90.50
59505;DHT22;45321;53.200;5.814;2024-03-22T04:09:36;10.70;90.50
59505;DHT22;45321;53.200;5.814;2024-03-22T04:12:02;10.80;90.50
59505;DHT22;45321;53.200;5.814;2024-03-22T04:14:28;10.80;90.50
59505;DHT22;45321;53.200;5.814;2024-03-22T04:16:54;10.80;90.40
59505;DHT22;45321;53.200;5.814;2024-03-22T04:19:21;10.80;90.40
59505;DHT22;45321;53.200;5.814;2024-03-22T04:21:47;10.80;90.40
59505;DHT22;45321;53.200;5.814;2024-03-22T04:24:13;10.80;90.30
59505;DHT22;45321;53.200;5.814;2024-03-22T04:26:39;10.80;90.30
59505;DHT22;45321;53.200;5.814;2024-03-22T04:29:04;10.80;90.30
59505;DHT22;45321;53.200;5.814;2024-03-22T04:31:30;10.80;90.20
59505;DHT22;45321;53.200;5.814;2024-03-22T04:33:56;10.80;90.20
59505;DHT22;45321;53.200;5.814;2024-03-22T04:36:21;10.80;90.10
59505;DHT22;45321;53.200;5.814;2024-03-22T04:38:48;10.80;90.10
59505;DHT22;45321;53.200;5.814;2024-03-22T04:41:13;10.80;90.10
59505;DHT22;45321;53.200;5.814;2024-03-22T04:43:39;10.80;90.10
59505;DHT22;45321;53.200;5.814;2024-03-22T04:46:05;10.80;90.10
59505;DHT22;45321;53.200;5.814;2024-03-22T04:48:30;10.80;90.10
59505;DHT22;45321;53.200;5.814;2024-03-22T04:50:56;10.80;90.10
59505;DHT22;45321;53.200;5.814;2024-03-22T04:53:22;10.80;90.10
59505;DHT22;45321;53.200;5.814;2024-03-22T04:55:49;10.80;90.00
59505;DHT22;45321;53.200;5.814;2024-03-22T04:58:18;10.80;89.90
59505;DHT22;45321;53.200;5.814;2024-03-22T05:00:45;10.80;89.90
59505;DHT22;45321;53.200;5.814;2024-03-22T05:03:12;10.80;89.90
59505;DHT22;45321;53.200;5.814;2024-03-22T05:05:38;10.80;89.90
59505;DHT22;45321;53.200;5.814;2024-03-22T05:08:05;10.80;90.10
59505;DHT22;45321;53.200;5.814;2024-03-22T05:10:31;10.80;90.30
59505;DHT22;45321;53.200;5.814;2024-03-22T05:12:57;10.80;90.40
59505;DHT22;45321;53.200;5.814;2024-03-22T05:15:23;10.70;90.80
59505;DHT22;45321;53.200;5.814;2024-03-22T05:17:51;10.60;90.80
59505;DHT22;45321;53.200;5.814;2024-03-22T05:20:17;10.60;91.10
59505;DHT22;45321;53.200;5.814;2024-03-22T05:22:43;10.50;91.30
59505;DHT22;45321;53.200;5.814;2024-03-22T05:25:09;10.50;91.70
59505;DHT22;45321;53.200;5.814;2024-03-22T05:27:35;10.40;91.70
59505;DHT22;45321;53.200;5.814;2024-03-22T05:30:01;10.40;91.90
59505;DHT22;45321;53.200;5.814;2024-03-22T05:32:29;10.40;92.00
59505;DHT22;45321;53.200;5.814;2024-03-22T05:34:55;10.40;92.00
59505;DHT22;45321;53.200;5.814;2024-03-22T05:37:21;10.30;92.00
59505;DHT22;45321;53.200;5.814;2024-03-22T05:39:46;10.30;92.00
59505;DHT22;45321;53.200;5.814;2024-03-22T05:42:13;10.30;92.10
59505;DHT22;45321;53.200;5.814;2024-03-22T05:44:38;10.30;92.20
59505;DHT22;45321;53.200;5.814;2024-03-22T05:47:04;10.30;92.30
59505;DHT22;45321;53.200;5.814;2024-03-22T05:49:30;10.30;92.40
59505;DHT22;45321;53.200;5.814;2024-03-22T05:51:56;10.20;92.50
59505;DHT22;45321;53.200;5.814;2024-03-22T05:54:22;10.20;92.50
59505;DHT22;45321;53.200;5.814;2024-03-22T05:56:48;10.20;92.60
59505;DHT22;45321;53.200;5.814;2024-03-22T05:59:13;10.20;92.60
59505;DHT22;45321;53.200;5.814;2024-03-22T06:01:39;10.20;92.70
59505;DHT22;45321;53.200;5.814;2024-03-22T06:04:05;10.10;92.70
59505;DHT22;45321;53.200;5.814;2024-03-22T06:06:35;10.10;92.80
59505;DHT22;45321;53.200;5.814;2024-03-22T06:09:01;10.10;92.80
59505;DHT22;45321;53.200;5.814;2024-03-22T06:11:32;10.10;92.70
59505;DHT22;45321;53.200;5.814;2024-03-22T06:13:58;10.20;92.80
59505;DHT22;45321;53.200;5.814;2024-03-22T06:16:24;10.20;92.80
59505;DHT22;45321;53.200;5.814;2024-03-22T06:18:49;10.20;92.80
59505;DHT22;45321;53.200;5.814;2024-03-22T06:21:15;10.20;92.80
59505;DHT22;45321;53.200;5.814;2024-03-22T06:23:41;10.20;92.70
59505;DHT22;45321;53.200;5.814;2024-03-22T06:26:09;10.10;92.70
59505;DHT22;45321;53.200;5.814;2024-03-22T06:28:35;10.10;92.70
59505;DHT22;45321;53.200;5.814;2024-03-22T06:31:01;10.10;92.80
59505;DHT22;45321;53.200;5.814;2024-03-22T06:33:28;10.10;92.90
59505;DHT22;45321;53.200;5.814;2024-03-22T06:35:54;10.10;93.00
59505;DHT22;45321;53.200;5.814;2024-03-22T06:38:20;10.10;93.00
59505;DHT22;45321;53.200;5.814;2024-03-22T06:40:46;10.10;92.90
59505;DHT22;45321;53.200;5.814;2024-03-22T06:43:11;10.10;93.00
59505;DHT22;45321;53.200;5.814;2024-03-22T06:45:37;10.10;93.10
59505;DHT22;45321;53.200;5.814;2024-03-22T06:48:03;10.10;93.30
59505;DHT22;45321;53.200;5.814;2024-03-22T06:50:29;10.10;93.20
59505;DHT22;45321;53.200;5.814;2024-03-22T06:52:54;10.10;93.30
59505;DHT22;45321;53.200;5.814;2024-03-22T06:55:20;10.10;93.30
59505;DHT22;45321;53.200;5.814;2024-03-22T06:57:47;10.00;93.30
59505;DHT22;45321;53.200;5.814;2024-03-22T07:00:14;10.10;93.40
59505;DHT22;45321;53.200;5.814;2024-03-22T07:02:40;10.00;93.40
59505;DHT22;45321;53.200;5.814;2024-03-22T07:05:07;10.00;93.40
59505;DHT22;45321;53.200;5.814;2024-03-22T07:07:34;10.00;93.50
59505;DHT22;45321;53.200;5.814;2024-03-22T07:09:59;10.00;93.60
59505;DHT22;45321;53.200;5.814;2024-03-22T07:12:25;10.00;93.60
59505;DHT22;45321;53.200;5.814;2024-03-22T07:14:51;10.00;93.60
59505;DHT22;45321;53.200;5.814;2024-03-22T07:17:17;10.00;93.70
59505;DHT22;45321;53.200;5.814;2024-03-22T07:19:42;10.00;93.80
59505;DHT22;45321;53.200;5.814;2024-03-22T07:22:08;10.10;93.80
59505;DHT22;45321;53.200;5.814;2024-03-22T07:24:34;10.00;93.80
59505;DHT22;45321;53.200;5.814;2024-03-22T07:27:00;10.10;93.80
59505;DHT22;45321;53.200;5.814;2024-03-22T07:29:25;10.10;94.00
59505;DHT22;45321;53.200;5.814;2024-03-22T07:31:51;10.00;93.90
59505;DHT22;45321;53.200;5.814;2024-03-22T07:34:17;10.10;94.10
59505;DHT22;45321;53.200;5.814;2024-03-22T07:36:43;10.10;94.00
59505;DHT22;45321;53.200;5.814;2024-03-22T07:39:08;10.10;94.00
59505;DHT22;45321;53.200;5.814;2024-03-22T07:41:35;10.00;93.90
59505;DHT22;45321;53.200;5.814;2024-03-22T07:44:01;10.00;93.90
59505;DHT22;45321;53.200;5.814;2024-03-22T07:46:28;10.00;94.00
59505;DHT22;45321;53.200;5.814;2024-03-22T07:48:54;10.00;94.00
59505;DHT22;45321;53.200;5.814;2024-03-22T07:51:20;10.00;94.10
59505;DHT22;45321;53.200;5.814;2024-03-22T07:53:46;10.00;94.10
59505;DHT22;45321;53.200;5.814;2024-03-22T07:56:11;10.00;94.10
59505;DHT22;45321;53.200;5.814;2024-03-22T07:58:38;10.00;94.20
59505;DHT22;45321;53.200;5.814;2024-03-22T08:01:04;10.00;94.10
59505;DHT22;45321;53.200;5.814;2024-03-22T08:03:30;10.00;94.20
59505;DHT22;45321;53.200;5.814;2024-03-22T08:05:55;10.10;94.30
59505;DHT22;45321;53.200;5.814;2024-03-22T08:08:21;10.10;94.30
59505;DHT22;45321;53.200;5.814;2024-03-22T08:10:47;10.10;94.30
59505;DHT22;45321;53.200;5.814;2024-03-22T08:13:12;10.10;94.20
59505;DHT22;45321;53.200;5.814;2024-03-22T08:15:38;10.10;94.20
59505;DHT22;45321;53.200;5.814;2024-03-22T08:18:04;10.10;94.20
59505;DHT22;45321;53.200;5.814;2024-03-22T08:20:30;10.00;94.20
59505;DHT22;45321;53.200;5.814;2024-03-22T08:22:57;10.10;94.20
59505;DHT22;45321;53.200;5.814;2024-03-22T08:25:23;10.00;94.20
59505;DHT22;45321;53.200;5.814;2024-03-22T08:27:50;10.00;94.20
59505;DHT22;45321;53.200;5.814;2024-03-22T08:30:21;10.00;94.30
59505;DHT22;45321;53.200;5.814;2024-03-22T08:32:46;10.10;94.30
59505;DHT22;45321;53.200;5.814;2024-03-22T08:35:13;10.10;94.30
59505;DHT22;45321;53.200;5.814;2024-03-22T08:37:38;10.10;94.30
59505;DHT22;45321;53.200;5.814;2024-03-22T08:40:04;10.10;94.40
59505;DHT22;45321;53.200;5.814;2024-03-22T08:42:30;10.10;94.40
59505;DHT22;45321;53.200;5.814;2024-03-22T08:44:56;10.10;94.50
59505;DHT22;45321;53.200;5.814;2024-03-22T08:47:25;10.10;94.40
59505;DHT22;45321;53.200;5.814;2024-03-22T08:49:51;10.10;94.40
59505;DHT22;45321;53.200;5.814;2024-03-22T08:52:17;10.10;94.50
59505;DHT22;45321;53.200;5.814;2024-03-22T08:54:42;10.10;94.30
59505;DHT22;45321;53.200;5.814;2024-03-22T08:57:09;10.10;94.40
59505;DHT22;45321;53.200;5.814;2024-03-22T08:59:34;10.10;94.40
59505;DHT22;45321;53.200;5.814;2024-03-22T09:02:00;10.10;94.40
59505;DHT22;45321;53.200;5.814;2024-03-22T09:04:26;10.10;94.40
59505;DHT22;45321;53.200;5.814;2024-03-22T09:06:52;10.10;94.30
59505;DHT22;45321;53.200;5.814;2024-03-22T09:09:17;10.10;94.30
59505;DHT22;45321;53.200;5.814;2024-03-22T09:11:43;10.10;94.30
59505;DHT22;45321;53.200;5.814;2024-03-22T09:14:09;10.10;94.30
59505;DHT22;45321;53.200;5.814;2024-03-22T09:16:35;10.10;94.30
59505;DHT22;45321;53.200;5.814;2024-03-22T09:19:00;10.00;94.30
59505;DHT22;45321;53.200;5.814;2024-03-22T09:21:26;10.10;94.40
59505;DHT22;45321;53.200;5.814;2024-03-22T09:23:52;10.10;94.40
59505;DHT22;45321;53.200;5.814;2024-03-22T09:26:18;10.10;94.40
59505;DHT22;45321;53.200;5.814;2024-03-22T09:28:46;10.10;94.40
59505;DHT22;45321;53.200;5.814;2024-03-22T09:31:12;10.20;94.40
59505;DHT22;45321;53.200;5.814;2024-03-22T09:33:38;10.20;94.40
59505;DHT22;45321;53.200;5.814;2024-03-22T09:36:03;10.10;94.50
59505;DHT22;45321;53.200;5.814;2024-03-22T09:38:29;10.10;94.40
59505;DHT22;45321;53.200;5.814;2024-03-22T09:40:55;10.20;94.40
59505;DHT22;45321;53.200;5.814;2024-03-22T09:43:21;10.20;94.50
59505;DHT22;45321;53.200;5.814;2024-03-22T09:45:49;10.20;94.40
59505;DHT22;45321;53.200;5.814;2024-03-22T09:48:17;10.20;94.50
59505;DHT22;45321;53.200;5.814;2024-03-22T09:50:45;10.20;94.40
59505;DHT22;45321;53.200;5.814;2024-03-22T09:53:12;10.30;94.40
59505;DHT22;45321;53.200;5.814;2024-03-22T09:55:39;10.30;94.50
59505;DHT22;45321;53.200;5.814;2024-03-22T09:58:09;10.30;94.50
59505;DHT22;45321;53.200;5.814;2024-03-22T10:00:35;10.30;94.50
59505;DHT22;45321;53.200;5.814;2024-03-22T10:03:01;10.30;94.50
59505;DHT22;45321;53.200;5.814;2024-03-22T10:05:29;10.30;94.40
59505;DHT22;45321;53.200;5.814;2024-03-22T10:07:55;10.40;94.40
59505;DHT22;45321;53.200;5.814;2024-03-22T10:10:21;10.40;94.40
59505;DHT22;45321;53.200;5.814;2024-03-22T10:12:47;10.40;94.30
59505;DHT22;45321;53.200;5.814;2024-03-22T10:15:13;10.40;94.30
59505;DHT22;45321;53.200;5.814;2024-03-22T10:17:39;10.40;94.30
59505;DHT22;45321;53.200;5.814;2024-03-22T10:20:07;10.40;94.30
59505;DHT22;45321;53.200;5.814;2024-03-22T10:22:43;10.50;94.10
59505;DHT22;45321;53.200;5.814;2024-03-22T10:25:12;10.40;94.10
59505;DHT22;45321;53.200;5.814;2024-03-22T10:27:41;10.40;94.00
59505;DHT22;45321;53.200;5.814;2024-03-22T10:30:08;10.40;94.00
59505;DHT22;45321;53.200;5.814;2024-03-22T10:32:38;10.40;94.20
59505;DHT22;45321;53.200;5.814;2024-03-22T10:35:04;10.50;94.20
59505;DHT22;45321;53.200;5.814;2024-03-22T10:37:32;10.50;94.10
59505;DHT22;45321;53.200;5.814;2024-03-22T10:40:03;10.50;94.20
59505;DHT22;45321;53.200;5.814;2024-03-22T10:42:39;10.60;94.20
59505;DHT22;45321;53.200;5.814;2024-03-22T10:45:06;10.70;94.20
59505;DHT22;45321;53.200;5.814;2024-03-22T10:47:35;10.60;94.20
59505;DHT22;45321;53.200;5.814;2024-03-22T10:50:09;10.70;94.20
59505;DHT22;45321;53.200;5.814;2024-03-22T10:52:47;10.70;94.10
59505;DHT22;45321;53.200;5.814;2024-03-22T10:55:20;10.70;93.90
59505;DHT22;45321;53.200;5.814;2024-03-22T10:57:48;10.70;93.80
59505;DHT22;45321;53.200;5.814;2024-03-22T11:00:14;10.70;93.70
59505;DHT22;45321;53.200;5.814;2024-03-22T11:02:44;10.70;93.70
59505;DHT22;45321;53.200;5.814;2024-03-22T11:05:17;10.70;93.60
59505;DHT22;45321;53.200;5.814;2024-03-22T11:07:44;10.70;93.60
59505;DHT22;45321;53.200;5.814;2024-03-22T11:10:12;10.80;93.70
59505;DHT22;45321;53.200;5.814;2024-03-22T11:12:41;10.80;93.70
59505;DHT22;45321;53.200;5.814;2024-03-22T11:15:10;10.80;93.60
59505;DHT22;45321;53.200;5.814;2024-03-22T11:17:37;10.80;93.40
59505;DHT22;45321;53.200;5.814;2024-03-22T11:20:04;10.80;93.30
59505;DHT22;45321;53.200;5.814;2024-03-22T11:22:31;10.80;93.30
59505;DHT22;45321;53.200;5.814;2024-03-22T11:24:57;10.90;93.30
59505;DHT22;45321;53.200;5.814;2024-03-22T11:27:23;10.90;93.20
59505;DHT22;45321;53.200;5.814;2024-03-22T11:29:49;10.80;93.00
59505;DHT22;45321;53.200;5.814;2024-03-22T11:32:16;10.90;92.90
59505;DHT22;45321;53.200;5.814;2024-03-22T11:34:43;11.00;92.90
59505;DHT22;45321;53.200;5.814;2024-03-22T11:37:09;11.00;92.80
59505;DHT22;45321;53.200;5.814;2024-03-22T11:39:39;11.00;92.50
59505;DHT22;45321;53.200;5.814;2024-03-22T11:42:06;11.10;92.40
59505;DHT22;45321;53.200;5.814;2024-03-22T11:44:34;11.00;92.00
59505;DHT22;45321;53.200;5.814;2024-03-22T11:47:02;11.00;92.00
59505;DHT22;45321;53.200;5.814;2024-03-22T11:49:28;11.00;91.80
59505;DHT22;45321;53.200;5.814;2024-03-22T11:51:56;11.00;91.60
59505;DHT22;45321;53.200;5.814;2024-03-22T11:54:22;11.00;91.50
59505;DHT22;45321;53.200;5.814;2024-03-22T11:56:49;11.00;91.40
59505;DHT22;45321;53.200;5.814;2024-03-22T11:59:18;11.00;91.30
59505;DHT22;45321;53.200;5.814;2024-03-22T12:01:44;11.00;91.20
59505;DHT22;45321;53.200;5.814;2024-03-22T12:04:11;11.10;91.20
59505;DHT22;45321;53.200;5.814;2024-03-22T12:06:42;11.10;91.20
59505;DHT22;45321;53.200;5.814;2024-03-22T12:09:08;11.20;90.90
59505;DHT22;45321;53.200;5.814;2024-03-22T12:11:36;11.30;90.80
59505;DHT22;45321;53.200;5.814;2024-03-22T12:14:02;11.30;90.50
59505;DHT22;45321;53.200;5.814;2024-03-22T12:16:28;11.30;90.20
59505;DHT22;45321;53.200;5.814;2024-03-22T12:18:53;11.30;90.00
59505;DHT22;45321;53.200;5.814;2024-03-22T12:21:19;11.40;90.00
59505;DHT22;45321;53.200;5.814;2024-03-22T12:23:45;11.40;89.90
59505;DHT22;45321;53.200;5.814;2024-03-22T12:26:10;11.50;89.70
59505;DHT22;45321;53.200;5.814;2024-03-22T12:28:36;11.50;89.50
59505;DHT22;45321;53.200;5.814;2024-03-22T12:31:02;11.50;89.40
59505;DHT22;45321;53.200;5.814;2024-03-22T12:33:29;11.50;89.10
59505;DHT22;45321;53.200;5.814;2024-03-22T12:35:55;11.60;89.10
59505;DHT22;45321;53.200;5.814;2024-03-22T12:38:20;11.60;88.80
59505;DHT22;45321;53.200;5.814;2024-03-22T12:40:46;11.50;88.40
59505;DHT22;45321;53.200;5.814;2024-03-22T12:43:12;11.50;88.20
59505;DHT22;45321;53.200;5.814;2024-03-22T12:45:37;11.50;88.20
59505;DHT22;45321;53.200;5.814;2024-03-22T12:48:04;11.50;87.80
59505;DHT22;45321;53.200;5.814;2024-03-22T12:50:30;11.60;87.90
59505;DHT22;45321;53.200;5.814;2024-03-22T12:52:56;11.60;87.70
59505;DHT22;45321;53.200;5.814;2024-03-22T12:55:22;11.60;87.70
59505;DHT22;45321;53.200;5.814;2024-03-22T12:57:47;11.50;87.70
59505;DHT22;45321;53.200;5.814;2024-03-22T13:00:14;11.50;87.90
59505;DHT22;45321;53.200;5.814;2024-03-22T13:02:45;11.50;88.00
59505;DHT22;45321;53.200;5.814;2024-03-22T13:05:10;11.40;88.00
59505;DHT22;45321;53.200;5.814;2024-03-22T13:07:36;11.30;88.20
59505;DHT22;45321;53.200;5.814;2024-03-22T13:10:03;11.30;88.30
59505;DHT22;45321;53.200;5.814;2024-03-22T13:12:29;11.20;88.40
59505;DHT22;45321;53.200;5.814;2024-03-22T13:15:03;11.20;88.50
59505;DHT22;45321;53.200;5.814;2024-03-22T13:17:29;11.10;88.50
59505;DHT22;45321;53.200;5.814;2024-03-22T13:19:54;11.00;88.50
59505;DHT22;45321;53.200;5.814;2024-03-22T13:22:20;11.00;88.60
59505;DHT22;45321;53.200;5.814;2024-03-22T13:24:46;11.00;88.70
59505;DHT22;45321;53.200;5.814;2024-03-22T13:27:12;11.00;88.70
59505;DHT22;45321;53.200;5.814;2024-03-22T13:29:41;11.10;88.70
59505;DHT22;45321;53.200;5.814;2024-03-22T13:32:07;11.10;88.50
59505;DHT22;45321;53.200;5.814;2024-03-22T13:34:35;11.10;88.40
59505;DHT22;45321;53.200;5.814;2024-03-22T13:37:00;11.00;88.30
59505;DHT22;45321;53.200;5.814;2024-03-22T13:39:26;11.00;88.10
59505;DHT22;45321;53.200;5.814;2024-03-22T13:41:52;10.90;87.90
59505;DHT22;45321;53.200;5.814;2024-03-22T13:44:17;10.90;87.80
59505;DHT22;45321;53.200;5.814;2024-03-22T13:46:43;10.80;87.50
59505;DHT22;45321;53.200;5.814;2024-03-22T13:49:15;10.80;87.60
59505;DHT22;45321;53.200;5.814;2024-03-22T13:51:47;10.80;87.70
59505;DHT22;45321;53.200;5.814;2024-03-22T13:54:13;10.80;87.50
59505;DHT22;45321;53.200;5.814;2024-03-22T13:56:39;10.90;87.40
59505;DHT22;45321;53.200;5.814;2024-03-22T13:59:05;11.00;87.30
59505;DHT22;45321;53.200;5.814;2024-03-22T14:01:32;11.00;87.10
59505;DHT22;45321;53.200;5.814;2024-03-22T14:03:58;11.10;86.70
59505;DHT22;45321;53.200;5.814;2024-03-22T14:06:23;11.20;86.30
59505;DHT22;45321;53.200;5.814;2024-03-22T14:08:49;11.30;86.20
59505;DHT22;45321;53.200;5.814;2024-03-22T14:11:15;11.30;85.80
59505;DHT22;45321;53.200;5.814;2024-03-22T14:13:40;11.30;85.80
59505;DHT22;45321;53.200;5.814;2024-03-22T14:16:06;11.30;85.50
59505;DHT22;45321;53.200;5.814;2024-03-22T14:18:35;11.30;85.30
59505;DHT22;45321;53.200;5.814;2024-03-22T14:21:01;11.30;85.20
59505;DHT22;45321;53.200;5.814;2024-03-22T14:23:28;11.30;85.30
59505;DHT22;45321;53.200;5.814;2024-03-22T14:25:55;11.30;85.10
59505;DHT22;45321;53.200;5.814;2024-03-22T14:28:21;11.30;84.90
59505;DHT22;45321;53.200;5.814;2024-03-22T14:30:47;11.30;84.80
59505;DHT22;45321;53.200;5.814;2024-03-22T14:33:13;11.20;84.50
59505;DHT22;45321;53.200;5.814;2024-03-22T14:35:38;11.20;84.40
59505;DHT22;45321;53.200;5.814;2024-03-22T14:38:04;11.20;84.50
59505;DHT22;45321;53.200;5.814;2024-03-22T14:40:30;11.20;84.20
59505;DHT22;45321;53.200;5.814;2024-03-22T14:43:03;11.20;84.10
59505;DHT22;45321;53.200;5.814;2024-03-22T14:45:30;11.20;84.00
59505;DHT22;45321;53.200;5.814;2024-03-22T14:47:56;11.20;84.00
59505;DHT22;45321;53.200;5.814;2024-03-22T14:50:22;11.20;84.10
59505;DHT22;45321;53.200;5.814;2024-03-22T14:52:49;11.20;84.20
59505;DHT22;45321;53.200;5.814;2024-03-22T14:55:15;11.20;84.10
59505;DHT22;45321;53.200;5.814;2024-03-22T14:57:41;11.20;84.20
59505;DHT22;45321;53.200;5.814;2024-03-22T15:00:07;11.30;84.20
59505;DHT22;45321;53.200;5.814;2024-03-22T15:02:37;11.30;84.10
59505;DHT22;45321;53.200;5.814;2024-03-22T15:05:02;11.30;83.80
59505;DHT22;45321;53.200;5.814;2024-03-22T15:07:30;11.30;83.30
59505;DHT22;45321;53.200;5.814;2024-03-22T15:09:56;11.30;83.20
59505;DHT22;45321;53.200;5.814;2024-03-22T15:12:26;11.30;83.40
59505;DHT22;45321;53.200;5.814;2024-03-22T15:14:54;11.50;82.90
59505;DHT22;45321;53.200;5.814;2024-03-22T15:17:20;11.50;82.80
59505;DHT22;45321;53.200;5.814;2024-03-22T15:19:51;11.60;82.40
59505;DHT22;45321;53.200;5.814;2024-03-22T15:22:17;11.60;81.60
59505;DHT22;45321;53.200;5.814;2024-03-22T15:24:47;11.60;81.40